Time;durP1;ratioP1;P1;durP2;ratioP2;P2;SDS_P1;SDS_P2;PMS_P1;PMS_P2;Temp;Humidity;BMP_temperature;BMP_pressure;BME280_temperature;BME280_humidity;BME280_pressure;Samples;Min_cycle;Max_cycle;Signal;HPM_P1;HPM_P2
2022/06/22 00:00:35;;;;;;;0.75;0.70;;;;;;;17.07;79.24;100666.56;5049164;28;20126;-62
2022/06/22 00:03:03;;;;;;;0.95;0.50;;;;;;;17.28;79.17;100652.81;5047870;28;20075;-62
2022/06/22 00:05:52;;;;;;;0.75;0.60;;;;;;;17.26;78.67;100660.59;5048047;28;20039;-62
2022/06/22 00:08:27;;;;;;;0.98;0.90;;;;;;;17.13;79.15;100664.94;5043845;28;20491;-62
2022/06/22 00:10:52;;;;;;;1.17;0.68;;;;;;;17.22;78.83;100662.56;5044815;28;20021;-61
2022/06/22 00:13:28;;;;;;;0.68;0.68;;;;;;;17.30;78.74;100666.81;5048268;28;20028;-62
2022/06/22 00:16:02;;;;;;;0.75;0.50;;;;;;;17.14;79.01;100663.78;5046667;28;20021;-62
2022/06/22 00:18:39;;;;;;;0.57;0.50;;;;;;;17.07;78.86;100666.56;5048259;28;20035;-62
2022/06/22 00:21:27;;;;;;;1.23;0.60;;;;;;;17.10;78.82;100671.19;5038410;28;20217;-62
2022/06/22 00:23:57;;;;;;;1.08;0.75;;;;;;;17.00;79.77;100677.47;5046955;28;20032;-62
2022/06/22 00:26:22;;;;;;;0.60;0.60;;;;;;;16.94;79.49;100679.06;5047028;28;20507;-62
2022/06/22 00:28:54;;;;;;;1.08;0.80;;;;;;;16.71;80.39;100676.84;5042387;28;20052;-60
2022/06/22 00:31:30;;;;;;;1.88;0.73;;;;;;;16.37;82.56;100669.56;5038634;28;20473;-61
2022/06/22 00:34:12;;;;;;;3.25;1.20;;;;;;;16.19;82.69;100664.19;5045762;28;20025;-61
2022/06/22 00:36:42;;;;;;;0.77;0.70;;;;;;;16.16;83.48;100668.44;5048608;28;20065;-60
2022/06/22 00:39:17;;;;;;;2.08;0.50;;;;;;;16.22;83.43;100669.59;5049704;28;20033;-61
2022/06/22 00:42:14;;;;;;;0.77;0.73;;;;;;;16.32;83.30;100676.16;5049532;28;20029;-61
2022/06/22 00:44:52;;;;;;;0.77;0.77;;;;;;;16.13;84.08;100671.97;5049028;28;20045;-61
2022/06/22 00:47:24;;;;;;;0.52;0.43;;;;;;;16.34;82.99;100673.09;5044304;28;20037;-59
2022/06/22 00:49:51;;;;;;;1.13;0.93;;;;;;;16.22;83.45;100675.03;5047515;28;20124;-61
2022/06/22 00:52:25;;;;;;;1.02;0.82;;;;;;;16.30;83.07;100677.75;5047626;28;20032;-60
2022/06/22 00:54:51;;;;;;;0.68;0.68;;;;;;;15.93;84.33;100675.50;5042133;28;20032;-61
2022/06/22 00:57:29;;;;;;;1.67;0.73;;;;;;;15.64;86.06;100669.28;5047243;28;20025;-60
2022/06/22 01:00:00;;;;;;;1.98;0.75;;;;;;;15.94;85.45;100669.66;5039802;28;20029;-58
2022/06/22 01:02:26;;;;;;;;;;;;;;;15.62;86.82;100676.28;5044686;28;20522;-61
2022/06/22 01:04:59;;;;;;;1.20;0.70;;;;;;;15.60;87.15;100670.47;5047894;28;19917;-61
2022/06/22 01:07:33;;;;;;;1.48;0.70;;;;;;;15.75;86.18;100672.00;5048587;28;20087;-61
2022/06/22 01:10:05;;;;;;;0.60;0.60;;;;;;;15.47;87.41;100658.41;5038809;28;20071;-59
2022/06/22 01:12:48;;;;;;;1.90;0.93;;;;;;;15.56;87.09;100662.31;5048357;28;20120;-58
2022/06/22 01:15:50;;;;;;;1.95;0.60;;;;;;;15.60;86.70;100656.88;5048326;28;20040;-60
2022/06/22 01:18:15;;;;;;;;;;;;;;;15.79;86.12;100656.50;5041850;28;20041;-61
2022/06/22 01:20:47;;;;;;;1.65;0.82;;;;;;;15.44;86.53;100651.06;5047726;28;19920;-60
2022/06/22 01:23:34;;;;;;;0.50;0.50;;;;;;;15.25;88.40;100652.19;5047397;28;20488;-56
2022/06/22 01:26:24;;;;;;;1.15;0.52;;;;;;;15.54;86.90;100650.28;5046057;28;20090;-58
2022/06/22 01:28:54;;;;;;;0.93;0.82;;;;;;;15.42;86.77;100656.88;5044448;28;20037;-59
2022/06/22 01:31:20;;;;;;;1.60;0.80;;;;;;;15.27;87.72;100655.28;5045344;28;20040;-60
2022/06/22 01:33:49;;;;;;;1.02;0.90;;;;;;;15.54;87.03;100650.28;5047431;28;20029;-57
2022/06/22 01:36:20;;;;;;;1.10;0.82;;;;;;;15.71;85.45;100660.38;5039628;28;20095;-60
2022/06/22 01:38:45;;;;;;;1.30;0.67;;;;;;;15.54;85.98;100656.50;5041576;28;20474;-57
2022/06/22 01:41:23;;;;;;;0.60;0.60;;;;;;;15.30;86.94;100663.44;5047773;28;20333;-60
2022/06/22 01:44:00;;;;;;;7.88;0.70;;;;;;;15.21;87.88;100656.84;5048400;28;20060;-57
2022/06/22 01:46:38;;;;;;;0.77;0.63;;;;;;;15.21;87.72;100659.53;5046640;28;20049;-57
2022/06/22 01:49:18;;;;;;;0.88;0.63;;;;;;;15.12;87.46;100667.25;5048759;28;20116;-56
2022/06/22 01:51:53;;;;;;;0.60;0.60;;;;;;;15.20;87.39;100658.75;5048212;28;20028;-58
2022/06/22 01:54:44;;;;;;;0.82;0.60;;;;;;;15.06;87.90;100661.44;5048241;28;20109;-59
2022/06/22 01:57:25;;;;;;;0.90;0.65;;;;;;;15.03;88.24;100661.44;5049237;28;20479;-58
2022/06/22 02:00:09;;;;;;;1.42;0.90;;;;;;;14.79;89.21;100664.88;5042223;28;20032;-59
2022/06/22 02:02:46;;;;;;;1.17;0.60;;;;;;;14.87;89.19;100661.00;5047201;28;20040;-58
2022/06/22 02:05:19;;;;;;;0.88;0.65;;;;;;;14.72;89.67;100664.81;5046032;28;20029;-58
2022/06/22 02:08:08;;;;;;;1.38;0.65;;;;;;;14.76;89.74;100662.91;5048340;28;20039;-60
2022/06/22 02:10:44;;;;;;;0.80;0.60;;;;;;;14.92;88.90;100663.34;5051980;28;20491;-61
2022/06/22 02:13:24;;;;;;;0.95;0.80;;;;;;;14.86;88.74;100667.59;5051823;28;20037;-59
2022/06/22 02:15:52;;;;;;;1.10;0.80;;;;;;;14.67;89.70;100676.84;5051005;28;20040;-57
2022/06/22 02:18:47;;;;;;;1.05;0.70;;;;;;;14.71;89.63;100668.72;5052521;28;20523;-57
2022/06/22 02:21:18;;;;;;;0.77;0.68;;;;;;;14.65;89.42;100657.47;5017810;28;20048;-61
2022/06/22 02:23:46;;;;;;;;;;;;;;;14.73;89.24;100661.72;5051800;28;20047;-57
2022/06/22 02:26:27;;;;;;;0.50;0.50;;;;;;;14.22;90.57;100656.47;5050984;28;19920;-58
2022/06/22 02:28:52;;;;;;;1.60;0.93;;;;;;;14.61;90.18;100659.38;5048951;28;20033;-60
2022/06/22 02:31:20;;;;;;;1.70;0.80;;;;;;;14.59;89.53;100656.28;5050900;28;20166;-58
2022/06/22 02:33:51;;;;;;;2.28;1.00;;;;;;;14.61;89.66;100653.19;5048953;28;20083;-57
2022/06/22 02:36:18;;;;;;;0.95;0.70;;;;;;;14.61;89.66;100639.63;5050552;28;20033;-61
2022/06/22 02:38:46;;;;;;;1.42;0.77;;;;;;;14.65;89.25;100637.69;5047967;28;20475;-59
2022/06/22 02:46:42;;;;;;;1.60;1.33;;;;;;;14.64;88.16;100646.97;5096113;22;20103;-63
2022/06/22 02:49:40;;;;;;;0.65;0.63;;;;;;;14.42;89.51;100641.47;5061095;28;20052;-63
2022/06/22 02:52:09;;;;;;;0.68;0.68;;;;;;;14.48;90.22;100638.41;5038816;28;20095;-63
2022/06/22 02:54:41;;;;;;;2.38;0.88;;;;;;;14.32;90.51;100642.19;5050039;28;20155;-63
2022/06/22 02:57:06;;;;;;;;;;;;;;;14.43;90.06;100637.63;5046822;28;20518;-62
2022/06/22 02:59:33;;;;;;;1.50;1.08;;;;;;;14.12;91.38;100638.22;5047867;28;20023;-62
2022/06/22 03:01:59;;;;;;;1.15;1.00;;;;;;;14.01;92.14;100636.59;5052068;28;20025;-62
2022/06/22 03:04:25;;;;;;;1.23;1.00;;;;;;;13.90;93.16;100619.53;5048488;28;20041;-63
2022/06/22 03:06:54;;;;;;;1.95;1.10;;;;;;;14.23;91.45;100617.38;5051035;28;20040;-62
2022/06/22 03:09:20;;;;;;;1.35;1.20;;;;;;;14.25;90.45;100616.97;5051960;28;20036;-61
2022/06/22 03:11:52;;;;;;;0.80;0.75;;;;;;;14.12;91.50;100627.38;5051997;28;20485;-62
2022/06/22 03:14:44;;;;;;;1.35;0.90;;;;;;;14.17;91.81;100623.50;5050623;28;20111;-63
2022/06/22 03:17:18;;;;;;;0.43;0.43;;;;;;;14.38;90.95;100627.13;5047276;28;20040;-63
2022/06/22 03:19:51;;;;;;;1.20;0.93;;;;;;;14.39;90.34;100631.41;5041961;28;20120;-61
2022/06/22 03:22:21;;;;;;;2.35;1.30;;;;;;;14.39;90.65;100625.22;5049413;28;20029;-63
2022/06/22 03:24:56;;;;;;;1.25;0.90;;;;;;;14.42;90.01;100624.44;5051777;28;20124;-62
2022/06/22 03:27:27;;;;;;;1.00;0.90;;;;;;;14.34;90.53;100612.03;5044836;28;20444;-63
2022/06/22 03:29:57;;;;;;;1.80;1.30;;;;;;;14.19;92.18;100611.16;5048607;28;20025;-62
2022/06/22 03:32:30;;;;;;;1.52;0.80;;;;;;;14.15;92.37;100610.34;5051488;28;20108;-61
2022/06/22 03:35:30;;;;;;;0.88;0.88;;;;;;;14.25;92.55;100620.47;5041190;28;20175;-62
2022/06/22 03:38:05;;;;;;;1.70;1.03;;;;;;;14.38;91.54;100624.44;5035281;28;20146;-63
2022/06/22 03:40:52;;;;;;;1.63;1.05;;;;;;;14.03;93.04;100629.63;5043387;28;20036;-63
2022/06/22 03:43:25;;;;;;;2.88;1.00;;;;;;;14.10;93.57;100634.31;5041266;28;20258;-64
2022/06/22 03:46:00;;;;;;;1.25;1.05;;;;;;;14.28;92.79;100636.00;5053230;28;20037;-63
2022/06/22 03:48:34;;;;;;;1.48;1.10;;;;;;;14.32;92.58;100625.94;5056038;28;20400;-62
2022/06/22 03:51:07;;;;;;;1.67;1.13;;;;;;;14.45;91.84;100624.47;5050604;28;20174;-63
2022/06/22 03:54:02;;;;;;;4.15;1.20;;;;;;;14.55;91.94;100630.31;5050781;28;20598;-63
2022/06/22 03:56:33;;;;;;;1.73;1.17;;;;;;;14.61;92.26;100628.78;5033278;28;20120;-62
2022/06/22 03:59:01;;;;;;;;;;;;;;;14.52;92.55;100622.94;5042590;28;20095;-63
2022/06/22 04:01:26;;;;;;;1.10;0.82;;;;;;;14.58;92.65;100618.69;5048855;28;20281;-62
2022/06/22 04:03:54;;;;;;;2.35;1.33;;;;;;;14.56;92.83;100624.50;5049150;28;20115;-63
2022/06/22 04:06:42;;;;;;;1.35;1.15;;;;;;;14.75;92.33;100637.72;5045081;28;20041;-63
2022/06/22 04:09:15;;;;;;;1.55;1.10;;;;;;;14.52;92.54;100641.91;5039839;28;20106;-64
2022/06/22 04:11:48;;;;;;;2.78;1.20;;;;;;;14.39;94.83;100644.97;5046638;28;20099;-63
2022/06/22 04:14:22;;;;;;;3.50;1.25;;;;;;;14.47;95.08;100632.22;5047099;28;20107;-62
2022/06/22 04:16:57;;;;;;;2.25;1.30;;;;;;;14.68;93.83;100618.75;5049654;28;20045;-61
2022/06/22 04:19:29;;;;;;;1.63;1.08;;;;;;;14.72;93.72;100637.72;5047563;28;20075;-63
2022/06/22 04:22:21;;;;;;;2.85;1.38;;;;;;;14.87;93.54;100633.88;5044727;28;20032;-63
2022/06/22 04:24:57;;;;;;;2.40;1.27;;;;;;;14.97;93.04;100646.69;5032880;28;20806;-63
2022/06/22 04:27:35;;;;;;;2.42;1.20;;;;;;;14.99;93.71;100647.88;5048422;28;20025;-63
2022/06/22 04:30:06;;;;;;;1.38;1.13;;;;;;;15.09;93.06;100657.19;5043051;28;20489;-63
2022/06/22 04:33:14;;;;;;;2.67;1.48;;;;;;;15.21;93.02;100664.97;5050408;28;20120;-63
2022/06/22 04:36:01;;;;;;;1.95;1.08;;;;;;;15.45;92.48;100656.09;5047714;28;20099;-64
2022/06/22 04:38:39;;;;;;;2.67;1.30;;;;;;;15.49;92.13;100656.09;5046716;28;20041;-62
2022/06/22 04:41:27;;;;;;;2.33;1.20;;;;;;;15.62;92.03;100655.31;5039700;28;20028;-64
2022/06/22 04:43:55;;;;;;;2.38;1.50;;;;;;;15.71;91.81;100650.28;5046541;28;20044;-61
2022/06/22 04:46:27;;;;;;;1.77;1.55;;;;;;;15.76;91.59;100641.75;5041776;28;20542;-62
2022/06/22 04:48:56;;;;;;;1.77;1.30;;;;;;;15.84;91.83;100656.88;5040455;28;20770;-63
2022/06/22 04:51:33;;;;;;;1.65;1.30;;;;;;;15.90;91.64;100654.53;5041684;28;20036;-64
2022/06/22 04:54:16;;;;;;;1.55;1.38;;;;;;;15.93;92.60;100670.81;5047821;28;20036;-63
2022/06/22 04:56:47;;;;;;;1.38;1.13;;;;;;;16.08;92.26;100679.72;5045861;28;20098;-61
2022/06/22 04:59:16;;;;;;;2.42;1.40;;;;;;;16.22;91.75;100675.03;5041517;28;20025;-64
2022/06/22 05:01:49;;;;;;;1.17;1.08;;;;;;;16.29;91.35;100682.41;5039802;28;20029;-62
2022/06/22 05:04:22;;;;;;;2.58;1.30;;;;;;;16.37;91.50;100689.38;5063926;28;20064;-63
2022/06/22 05:07:03;;;;;;;3.13;1.52;;;;;;;16.45;91.32;100687.41;5046892;28;20111;-63
2022/06/22 05:09:44;;;;;;;3.63;1.27;;;;;;;16.57;90.69;100695.19;5046656;28;20127;-63
2022/06/22 05:12:31;;;;;;;5.95;1.70;;;;;;;16.72;89.61;100688.50;5048170;28;20039;-61
2022/06/22 05:15:01;;;;;;;1.25;1.00;;;;;;;17.02;89.43;100694.19;5027779;28;20091;-63
2022/06/22 05:17:36;;;;;;;2.17;1.35;;;;;;;17.77;87.08;100700.69;5039049;28;20048;-64
2022/06/22 05:20:16;;;;;;;2.10;1.23;;;;;;;18.81;82.53;100698.06;5041106;28;20040;-63
2022/06/22 05:22:41;;;;;;;2.00;1.10;;;;;;;19.59;78.36;100703.22;5041474;28;20037;-63
2022/06/22 05:25:11;;;;;;;1.67;1.17;;;;;;;20.26;74.53;100713.06;5038017;28;20125;-65
2022/06/22 05:27:50;;;;;;;1.48;0.95;;;;;;;20.95;69.88;100709.34;5040720;28;20083;-65
2022/06/22 05:30:15;;;;;;;2.15;0.90;;;;;;;21.46;68.51;100722.31;5044412;28;20064;-64
2022/06/22 05:32:49;;;;;;;1.17;0.85;;;;;;;21.92;65.40;100706.75;5043025;28;20082;-64
2022/06/22 05:35:26;;;;;;;0.75;0.68;;;;;;;22.19;63.83;100720.94;5047697;28;20032;-64
2022/06/22 05:37:54;;;;;;;1.27;0.80;;;;;;;22.51;63.74;100725.56;5037070;28;20156;-64
2022/06/22 05:40:23;;;;;;;0.85;0.70;;;;;;;22.82;62.21;100718.44;5042703;28;20443;-64
2022/06/22 05:42:49;;;;;;;2.15;1.20;;;;;;;22.82;61.04;100710.22;5038658;28;20021;-65
2022/06/22 05:45:22;;;;;;;0.93;0.80;;;;;;;23.08;61.19;100695.28;5050567;28;20389;-65
2022/06/22 05:47:48;;;;;;;0.80;0.70;;;;;;;23.20;60.65;100705.53;5049387;28;20032;-65
2022/06/22 05:50:38;;;;;;;0.60;0.50;;;;;;;23.34;60.52;100710.63;5048173;28;20079;-65
2022/06/22 05:53:22;;;;;;;1.10;0.88;;;;;;;23.23;60.12;100691.66;5064806;28;20032;-64
2022/06/22 05:55:50;;;;;;;0.70;0.50;;;;;;;23.39;59.76;100681.78;5048076;28;20455;-65
2022/06/22 05:58:39;;;;;;;0.57;0.57;;;;;;;23.16;60.54;100674.63;5037001;28;20037;-63
2022/06/22 06:01:17;;;;;;;0.50;0.50;;;;;;;23.38;60.03;100683.00;5051129;28;20045;-60
2022/06/22 06:03:53;;;;;;;0.50;0.40;;;;;;;23.56;60.12;100680.44;5064823;28;20052;-61
2022/06/22 06:06:24;;;;;;;2.00;0.50;;;;;;;23.55;59.70;100687.16;5049849;28;20366;-61
2022/06/22 06:08:59;;;;;;;0.52;0.40;;;;;;;23.60;59.78;100675.59;5053399;28;20033;-60
2022/06/22 06:11:35;;;;;;;1.52;0.82;;;;;;;23.56;59.60;100670.22;5055578;28;20033;-62
2022/06/22 06:14:08;;;;;;;1.60;0.60;;;;;;;23.50;60.48;100671.22;5049319;28;20033;-63
2022/06/22 06:16:46;;;;;;;0.88;0.50;;;;;;;23.53;60.61;100673.09;5046007;28;20048;-63
2022/06/22 06:19:16;;;;;;;1.08;0.60;;;;;;;23.43;60.43;100674.97;5044856;28;20033;-63
2022/06/22 06:21:42;;;;;;;0.52;0.35;;;;;;;23.53;60.97;100670.34;5047803;28;20029;-63
2022/06/22 06:24:24;;;;;;;2.00;0.60;;;;;;;23.43;61.41;100663.97;5047879;28;20035;-62
2022/06/22 06:27:34;;;;;;;1.58;0.70;;;;;;;23.52;60.42;100675.06;5044683;28;20449;-66
2022/06/22 06:30:15;;;;;;;0.65;0.55;;;;;;;23.37;60.46;100673.97;5046754;22;20045;-57
2022/06/22 06:33:03;;;;;;;1.98;0.77;;;;;;;23.55;62.48;100665.16;5059549;28;20024;-59
2022/06/22 06:35:35;;;;;;;0.60;0.50;;;;;;;23.53;61.75;100673.84;5063851;28;20025;-60
2022/06/22 06:38:27;;;;;;;4.40;0.75;;;;;;;23.33;61.97;100672.53;5058451;28;20029;-62
2022/06/22 06:41:08;;;;;;;0.82;0.55;;;;;;;23.43;62.13;100663.19;5035585;28;21044;-62
2022/06/22 06:43:36;;;;;;;1.20;0.55;;;;;;;23.46;61.41;100668.56;5049580;28;20041;-62
2022/06/22 06:46:08;;;;;;;1.00;0.60;;;;;;;23.57;61.30;100671.75;5054967;28;20028;-62
2022/06/22 06:48:55;;;;;;;1.35;0.70;;;;;;;23.62;61.53;100676.69;5047102;28;20040;-60
2022/06/22 06:51:22;;;;;;;1.25;0.70;;;;;;;23.66;60.13;100660.84;4991355;28;20441;-58
2022/06/22 06:54:00;;;;;;;0.47;0.45;;;;;;;23.58;60.47;100662.28;4971580;28;20042;-60
2022/06/22 06:56:48;;;;;;;0.80;0.50;;;;;;;23.64;59.98;100666.03;4993807;28;20046;-60
2022/06/22 06:59:19;;;;;;;0.98;0.45;;;;;;;23.63;59.15;100670.00;4971087;28;20043;-61
2022/06/22 07:01:46;;;;;;;1.60;0.60;;;;;;;23.76;60.48;100673.47;4971298;28;20080;-58
2022/06/22 07:04:20;;;;;;;1.13;0.73;;;;;;;23.85;58.74;100676.31;4978674;28;20686;-59
2022/06/22 07:06:46;;;;;;;1.10;0.60;;;;;;;23.93;60.03;100685.88;4989775;28;20092;-63
2022/06/22 07:09:16;;;;;;;0.43;0.43;;;;;;;23.93;59.93;100696.09;4989521;28;20492;-62
2022/06/22 07:11:48;;;;;;;0.90;0.63;;;;;;;23.97;59.66;100699.50;4986721;28;20054;-63
2022/06/22 07:14:16;;;;;;;0.90;0.80;;;;;;;24.16;59.58;100712.22;4983910;28;20515;-62
2022/06/22 07:16:42;;;;;;;0.80;0.40;;;;;;;24.21;58.17;100713.66;4985182;28;20034;-62
2022/06/22 07:19:25;;;;;;;1.58;0.70;;;;;;;24.17;57.51;100719.28;4989317;28;20049;-62
2022/06/22 07:21:56;;;;;;;1.20;0.60;;;;;;;24.34;57.60;100717.13;4988768;28;20537;-63
2022/06/22 07:24:29;;;;;;;0.40;0.40;;;;;;;24.30;57.74;100717.25;4989043;28;20042;-62
2022/06/22 07:27:07;;;;;;;0.82;0.50;;;;;;;24.44;58.12;100725.03;4980673;28;20052;-62
2022/06/22 07:30:03;;;;;;;0.65;0.63;;;;;;;24.45;57.94;100720.28;5040762;28;20175;-61
2022/06/22 07:32:59;;;;;;;0.65;0.60;;;;;;;24.49;57.20;100718.16;5067249;28;20116;-61
2022/06/22 07:35:36;;;;;;;0.88;0.60;;;;;;;24.57;56.24;100717.47;5047437;28;20039;-61
2022/06/22 07:38:20;;;;;;;0.93;0.85;;;;;;;24.60;57.10;100722.06;5047431;28;20037;-61
2022/06/22 07:43:33;;;;;;;2.50;0.60;;;;;;;24.83;55.81;100713.41;5037351;28;20618;-61
2022/06/22 07:45:59;;;;;;;2.25;0.60;;;;;;;24.82;55.96;100720.09;5039056;28;20037;-60
2022/06/22 07:48:27;;;;;;;0.43;0.43;;;;;;;24.79;55.50;100703.72;5047949;28;20025;-60
2022/06/22 07:51:00;;;;;;;1.05;0.80;;;;;;;24.90;56.10;100704.06;5042945;28;20747;-60
2022/06/22 07:53:52;;;;;;;2.40;0.60;;;;;;;24.69;54.57;100699.31;5049625;28;20033;-61
2022/06/22 07:56:36;;;;;;;1.40;0.70;;;;;;;24.88;55.65;100690.75;5033758;28;20029;-61
2022/06/22 07:59:09;;;;;;;0.65;0.47;;;;;;;25.01;55.78;100691.41;5063042;28;20033;-60
2022/06/22 08:01:39;;;;;;;2.45;0.70;;;;;;;25.19;55.59;100699.00;5041065;28;20033;-61
2022/06/22 08:04:25;;;;;;;0.50;0.45;;;;;;;25.29;54.97;100697.81;5045842;28;20033;-60
2022/06/22 08:06:59;;;;;;;1.23;0.52;;;;;;;25.43;53.90;100700.06;5039825;28;20119;-60
2022/06/22 08:09:37;;;;;;;1.05;0.50;;;;;;;25.57;52.86;100690.44;5043773;28;20076;-60
2022/06/22 08:12:06;;;;;;;1.60;0.50;;;;;;;25.81;51.81;100702.44;5045673;28;20520;-60
2022/06/22 08:14:44;;;;;;;1.17;0.60;;;;;;;25.88;52.33;100700.13;5047153;28;20372;-60
2022/06/22 08:17:20;;;;;;;1.30;0.50;;;;;;;25.96;51.45;100697.09;5039799;28;20021;-60
2022/06/22 08:19:46;;;;;;;1.25;0.70;;;;;;;25.88;51.50;100699.38;5042843;28;20037;-60
2022/06/22 08:22:13;;;;;;;2.47;0.40;;;;;;;26.02;51.55;100700.75;5041955;28;20033;-61
2022/06/22 08:24:44;;;;;;;0.60;0.50;;;;;;;26.06;51.62;100695.88;5048539;28;20517;-61
2022/06/22 08:27:16;;;;;;;1.00;0.60;;;;;;;26.25;50.69;100700.94;5042037;28;20403;-60
2022/06/22 08:29:42;;;;;;;0.68;0.65;;;;;;;26.11;50.58;100693.31;5051011;28;20487;-60
2022/06/22 08:32:25;;;;;;;1.08;0.50;;;;;;;26.29;50.69;100700.78;5040534;28;20061;-60
2022/06/22 08:34:58;;;;;;;1.33;0.60;;;;;;;26.56;49.77;100698.00;5046676;28;20039;-61
2022/06/22 08:37:56;;;;;;;0.38;0.32;;;;;;;26.52;50.50;100711.22;5040189;28;20040;-60
2022/06/22 08:40:55;;;;;;;0.47;0.47;;;;;;;26.31;49.57;100696.34;5016346;28;20078;-61
2022/06/22 08:43:42;;;;;;;0.43;0.40;;;;;;;26.40;49.20;100695.59;5046787;28;20071;-61
2022/06/22 08:46:27;;;;;;;3.20;0.47;;;;;;;26.59;50.26;100703.41;5046555;28;20032;-61
2022/06/22 08:49:31;;;;;;;0.85;0.60;;;;;;;26.82;49.47;100704.75;5046707;28;20426;-61
2022/06/22 08:52:37;;;;;;;0.60;0.60;;;;;;;26.69;48.22;100695.84;5037535;28;20066;-59
2022/06/22 08:55:17;;;;;;;0.70;0.50;;;;;;;26.84;48.38;100704.28;5048248;28;20029;-61
2022/06/22 08:58:05;;;;;;;0.50;0.40;;;;;;;27.02;48.67;100713.31;5045022;28;20032;-61
2022/06/22 09:01:08;;;;;;;1.08;0.60;;;;;;;27.16;48.28;100711.88;5047019;28;20057;-60
2022/06/22 09:04:11;;;;;;;1.38;0.85;;;;;;;27.23;47.73;100709.53;5024910;28;20106;-61
2022/06/22 09:06:39;;;;;;;1.67;0.68;;;;;;;27.46;48.43;100714.38;5043917;28;20174;-61
2022/06/22 09:09:33;;;;;;;1.02;0.93;;;;;;;27.54;47.92;100706.50;5037618;28;20112;-60
2022/06/22 09:12:08;;;;;;;0.80;0.55;;;;;;;27.65;48.66;100715.03;5045098;28;20387;-60
2022/06/22 09:14:57;;;;;;;0.60;0.60;;;;;;;27.21;46.81;100714.00;5052054;28;20028;-60
2022/06/22 09:17:39;;;;;;;0.85;0.65;;;;;;;27.10;47.72;100716.50;5044527;28;20028;-60
2022/06/22 09:20:52;;;;;;;0.68;0.47;;;;;;;27.42;48.16;100721.31;5045516;28;20033;-61
2022/06/22 09:23:45;;;;;;;1.60;0.85;;;;;;;27.73;46.20;100720.97;4962007;28;20046;-60
2022/06/22 09:26:22;;;;;;;0.45;0.43;;;;;;;27.57;46.20;100724.91;5036392;28;20041;-61
2022/06/22 09:29:01;;;;;;;1.42;0.70;;;;;;;27.18;46.73;100725.97;5037230;28;20029;-60
2022/06/22 09:31:41;;;;;;;0.63;0.50;;;;;;;26.93;46.97;100726.38;5039590;28;20021;-59
2022/06/22 09:34:13;;;;;;;1.05;0.57;;;;;;;27.17;46.06;100725.22;5041681;28;20401;-61
2022/06/22 09:37:00;;;;;;;0.65;0.50;;;;;;;27.30;43.38;100725.00;5047014;28;20635;-61
2022/06/22 09:39:51;;;;;;;1.23;0.65;;;;;;;27.85;46.75;100733.84;5045166;28;20044;-61
2022/06/22 09:42:49;;;;;;;0.50;0.50;;;;;;;28.21;45.20;100737.16;5039477;28;20108;-61
2022/06/22 09:45:29;;;;;;;1.38;0.40;;;;;;;28.47;44.16;100743.69;5045142;28;20036;-60
2022/06/22 09:48:07;;;;;;;1.05;0.70;;;;;;;28.36;43.83;100742.72;5039738;28;20140;-60
2022/06/22 09:50:48;;;;;;;0.77;0.52;;;;;;;28.26;44.58;100747.56;5028211;28;20040;-60
2022/06/22 09:53:48;;;;;;;0.75;0.73;;;;;;;28.35;43.45;100743.97;5060207;28;20099;-61
2022/06/22 09:56:55;;;;;;;0.75;0.57;;;;;;;28.51;44.23;100738.72;5044526;28;20033;-61
2022/06/22 09:59:24;;;;;;;0.47;0.47;;;;;;;28.78;43.77;100731.44;5047066;28;20047;-61
2022/06/22 10:01:57;;;;;;;0.70;0.52;;;;;;;28.98;43.55;100742.59;5040650;28;20033;-61
2022/06/22 10:04:38;;;;;;;0.88;0.55;;;;;;;29.10;43.31;100736.78;5036985;28;20037;-61
2022/06/22 10:07:31;;;;;;;1.80;1.00;;;;;;;28.74;42.59;100736.41;5042805;28;20030;-59
2022/06/22 10:10:29;;;;;;;1.20;0.70;;;;;;;28.62;42.01;100729.88;5051925;28;20029;-61
2022/06/22 10:12:58;;;;;;;1.00;0.90;;;;;;;28.92;42.99;100736.22;5043207;28;20037;-61
2022/06/22 10:15:32;;;;;;;1.45;0.90;;;;;;;29.12;42.38;100741.84;5047886;28;20032;-60
2022/06/22 10:18:38;;;;;;;0.82;0.80;;;;;;;29.33;41.81;100737.91;5046443;28;20391;-61
2022/06/22 10:21:35;;;;;;;0.70;0.60;;;;;;;29.59;42.03;100735.25;5042397;28;20158;-61
2022/06/22 10:24:35;;;;;;;1.27;0.90;;;;;;;29.71;41.02;100740.53;5048485;28;20025;-61
2022/06/22 10:27:38;;;;;;;1.13;0.60;;;;;;;29.75;40.69;100741.06;5036088;28;20033;-61
2022/06/22 10:30:26;;;;;;;0.80;0.80;;;;;;;29.90;40.25;100729.91;5044892;28;20033;-61
2022/06/22 10:33:15;;;;;;;0.63;0.55;;;;;;;29.91;39.95;100736.97;5055348;28;20931;-61
2022/06/22 10:36:13;;;;;;;0.70;0.43;;;;;;;29.89;39.32;100734.69;5049880;28;20025;-62
2022/06/22 10:38:45;;;;;;;0.90;0.57;;;;;;;29.97;39.10;100726.69;5009877;28;20499;-64
2022/06/22 10:47:37;;;;;;;0.73;0.50;;;;;;;29.61;40.54;100730.00;5039212;28;20133;-64
2022/06/22 10:50:17;;;;;;;0.70;0.55;;;;;;;29.95;40.50;100727.19;4984995;28;20143;-64
2022/06/22 10:53:25;;;;;;;1.48;0.85;;;;;;;30.12;39.67;100730.94;5050089;28;20040;-60
2022/06/22 10:56:06;;;;;;;2.38;0.80;;;;;;;30.27;38.78;100725.31;5018653;28;20410;-63
2022/06/22 10:58:31;;;;;;;1.05;0.35;;;;;;;30.36;38.29;100727.94;5048921;28;20029;-63
2022/06/22 11:01:25;;;;;;;0.50;0.40;;;;;;;30.34;36.90;100722.13;5053191;28;20455;-62
2022/06/22 11:04:28;;;;;;;1.23;0.60;;;;;;;30.30;38.22;100718.00;5057639;28;20064;-61
2022/06/22 11:07:00;;;;;;;1.02;0.50;;;;;;;30.52;38.19;100718.25;5063727;28;20099;-65
2022/06/22 11:09:42;;;;;;;1.13;0.63;;;;;;;30.64;38.32;100717.13;5045881;28;20037;-65
2022/06/22 11:12:20;;;;;;;1.75;0.88;;;;;;;30.62;37.79;100708.50;5044379;28;20067;-59
2022/06/22 11:15:01;;;;;;;0.55;0.50;;;;;;;30.70;38.55;100712.38;5045127;28;20101;-61
2022/06/22 11:17:47;;;;;;;0.52;0.45;;;;;;;30.91;37.99;100711.06;5044039;28;20060;-61
2022/06/22 11:20:45;;;;;;;1.15;0.63;;;;;;;30.91;37.27;100702.72;5046670;28;20432;-62
2022/06/22 11:23:15;;;;;;;0.40;0.40;;;;;;;30.96;36.80;100702.00;5027832;28;20049;-61
2022/06/22 11:32:27;;;;;;;0.40;0.40;;;;;;;31.04;36.14;100711.41;5063844;28;20464;-58
2022/06/22 11:35:11;;;;;;;1.08;0.45;;;;;;;31.25;36.74;100710.06;5052535;28;20127;-64
2022/06/22 11:37:42;;;;;;;0.70;0.50;;;;;;;31.24;37.23;100694.63;5050190;28;20472;-60
2022/06/22 11:40:23;;;;;;;1.17;0.70;;;;;;;31.20;36.93;100699.66;5057116;28;20112;-62
2022/06/22 11:43:00;;;;;;;0.73;0.70;;;;;;;31.29;36.49;100707.03;5053743;28;20032;-64
2022/06/22 11:45:50;;;;;;;0.57;0.50;;;;;;;31.40;36.91;100715.50;5052198;28;20052;-63
2022/06/22 11:48:21;;;;;;;1.65;0.40;;;;;;;31.45;36.36;100703.63;5046334;28;20029;-63
2022/06/22 11:51:27;;;;;;;0.60;0.50;;;;;;;31.49;37.07;100707.72;5048803;28;20123;-62
2022/06/22 11:54:22;;;;;;;1.40;0.80;;;;;;;31.48;37.26;100697.06;5045323;28;20061;-66
2022/06/22 11:56:56;;;;;;;0.60;0.52;;;;;;;31.39;36.90;100695.25;5034257;28;20553;-64
2022/06/22 11:59:52;;;;;;;1.92;1.40;;;;;;;31.24;36.09;100688.28;5052460;28;20036;-61
2022/06/22 12:02:51;;;;;;;1.13;0.70;;;;;;;31.21;36.41;100692.03;5044281;28;20037;-61
2022/06/22 12:05:55;;;;;;;1.23;0.90;;;;;;;31.34;36.12;100698.72;5045433;28;20057;-61
2022/06/22 12:08:48;;;;;;;1.58;1.05;;;;;;;31.24;36.68;100686.25;5044663;28;20041;-61
2022/06/22 12:11:41;;;;;;;0.50;0.50;;;;;;;30.43;36.81;100677.47;5045137;28;20037;-61
2022/06/22 12:17:37;;;;;;;0.80;0.65;;;;;;;30.58;38.51;100674.56;5047425;28;20017;-61
2022/06/22 12:20:03;;;;;;;0.85;0.60;;;;;;;30.76;38.13;100671.47;5041517;28;20053;-61
2022/06/22 12:23:02;;;;;;;0.93;0.70;;;;;;;30.93;37.30;100673.13;5047913;28;20459;-61
2022/06/22 12:25:42;;;;;;;0.73;0.60;;;;;;;30.86;37.67;100678.38;5042555;28;20506;-61
2022/06/22 12:28:29;;;;;;;1.42;0.57;;;;;;;30.44;37.73;100667.09;5032687;28;20486;-62
2022/06/22 12:30:58;;;;;;;1.00;0.75;;;;;;;30.51;37.45;100659.09;5045381;22;20168;-63
2022/06/22 12:33:33;;;;;;;0.85;0.63;;;;;;;30.37;37.68;100662.00;5042469;28;20445;-65
2022/06/22 12:36:03;;;;;;;2.05;1.05;;;;;;;30.54;37.19;100646.22;5045364;28;20029;-63
2022/06/22 12:38:48;;;;;;;0.90;0.32;;;;;;;30.51;37.01;100647.22;5046304;28;20047;-64
2022/06/22 12:41:27;;;;;;;0.82;0.50;;;;;;;30.37;37.77;100650.88;5037449;28;20024;-64
2022/06/22 12:44:21;;;;;;;0.70;0.70;;;;;;;30.27;36.61;100653.03;5044051;28;20033;-64